Gas Grouper — V7TZ2 — position and weather

sailwx.info

Track history (hours):
 
Tides and Currents Weather Stations Pressure Air Temp Water Temp Dewpoint Dewpoint Depression Visibility Wind Speed Wind Dir Waves Ship Positions

Gas Grouper

Last reported at 2016-Apr-26 01:33 UTC. Time now 2016-May-01 11:46 UTC.
Position N 30°50' E 032°19'.

Length 174 m; draft 10.4 m.

Type: Tanker. MMSI: 538003910.

Date/timePositionNaut miles runAvg speedWind from/ knotsBaromVisibWave heightAir tempDewpointWater temp
2016-Apr-26 01:33N 30°50' E 032°19'32 7.7
2016-Apr-25 21:22N 31°22' E 032°19'1 1.7
2016-Apr-25 20:32N 31°24' E 032°18'0 0.0
2016-Apr-25 19:32N 31°24' E 032°18'0 0.0
2016-Apr-25 18:32N 31°24' E 032°18'4 3.8
2016-Apr-25 17:33N 31°27' E 032°18'1514.5
2016-Apr-25 16:33N 31°38' E 032°06'1515.3
2016-Apr-25 15:33N 31°49' E 031°53'1515.4
2016-Apr-25 14:33N 32°00' E 031°41'1515.4
2016-Apr-25 13:33N 32°12' E 031°29'1615.4
2016-Apr-25 12:30N 32°23' E 031°15'40315.5
2016-Apr-24 10:34N 37°27' E 025°52'242 8.1
2016-Apr-23 04:31N 40°49' E 028°43'1010.0
2016-Apr-23 03:33N 40°56' E 028°51'0 0.0
2016-Apr-22 23:09N 40°56' E 028°51'2 3.9
2016-Apr-22 22:33N 40°56' E 028°54'33410.1
2016-Apr-21 13:33N 46°18' E 030°55'1313.3
2016-Apr-21 12:34N 46°32' E 030°56'4 0.1
2016-Apr-20 06:33N 46°34' E 031°00'2 1.1
2016-Apr-20 04:31N 46°32' E 030°59'0 0.0
2016-Apr-20 03:31N 46°32' E 030°59'0 0.0
2016-Apr-20 02:31N 46°32' E 030°59'0 0.0
2016-Apr-20 01:25N 46°32' E 030°59'0 0.0
2016-Apr-20 00:11N 46°32' E 030°59'0 0.0
2016-Apr-19 23:26N 46°32' E 030°59'0 0.0
2016-Apr-19 22:32N 46°32' E 030°59'0 0.0
2016-Apr-19 21:32N 46°32' E 030°59'0 0.0
2016-Apr-19 20:32N 46°32' E 030°59'0 0.0
2016-Apr-19 19:32N 46°32' E 030°59'0 0.0
2016-Apr-19 18:32N 46°32' E 030°59'0 0.0
2016-Apr-19 17:31N 46°32' E 030°59'0 0.1
2016-Apr-19 16:25N 46°32' E 030°59'0 0.1
2016-Apr-19 15:31N 46°32' E 030°59'0 0.1
2016-Apr-19 14:23N 46°32' E 030°59'0 0.0
2016-Apr-19 13:32N 46°32' E 030°59'0 0.1
2016-Apr-19 12:20N 46°32' E 030°59'0 0.1
2016-Apr-19 11:32N 46°32' E 030°59'0 0.0
2016-Apr-19 10:10N 46°32' E 030°59'0 0.0
2016-Apr-19 09:20N 46°32' E 030°59'0 0.1
2016-Apr-19 08:29N 46°32' E 030°59'0 0.0
2016-Apr-19 07:26N 46°32' E 030°59'0 0.0
2016-Apr-19 06:28N 46°32' E 030°59'0 0.0
2016-Apr-19 05:16N 46°32' E 030°59'0 0.0
2016-Apr-19 04:32N 46°32' E 030°59'0 0.0
2016-Apr-19 03:28N 46°32' E 030°59'0 0.0
2016-Apr-19 02:31N 46°32' E 030°59'0 0.0
2016-Apr-19 01:29N 46°32' E 030°59'0 0.0
2016-Apr-19 00:10N 46°32' E 030°59'0 0.1
2016-Apr-18 23:31N 46°32' E 030°59'0 0.1
2016-Apr-18 22:32N 46°32' E 030°59'0 0.1
2016-Apr-18 21:31N 46°32' E 030°59'0 0.0
2016-Apr-18 20:32N 46°32' E 030°59'0 0.0
2016-Apr-18 19:29N 46°32' E 030°59'0 0.0
2016-Apr-18 18:31N 46°32' E 030°59'0 0.0
2016-Apr-18 17:29N 46°32' E 030°59'0 0.0
2016-Apr-18 16:32N 46°32' E 030°59'0 0.1
2016-Apr-18 15:20N 46°32' E 030°59'0 0.0
2016-Apr-18 14:31N 46°32' E 030°59'0 0.0
2016-Apr-18 13:25N 46°32' E 030°59'0 0.0
2016-Apr-18 12:32N 46°32' E 030°59'0 0.0
2016-Apr-18 11:19N 46°32' E 030°59'0 0.0
2016-Apr-18 10:20N 46°32' E 030°59'0 0.0
2016-Apr-18 09:16N 46°32' E 030°59'0 0.0
2016-Apr-18 08:29N 46°32' E 030°59'0 0.0
2016-Apr-18 07:25N 46°32' E 030°59'0 0.0
2016-Apr-18 06:28N 46°32' E 030°59'0 0.0
2016-Apr-18 05:26N 46°32' E 030°59'0 0.0
2016-Apr-18 04:32N 46°32' E 030°59'0 0.0
2016-Apr-18 03:28N 46°32' E 030°59'0 0.0
2016-Apr-18 02:32N 46°32' E 030°59'0 0.0
2016-Apr-18 01:31N 46°32' E 030°59'0 0.0
2016-Apr-18 00:31N 46°32' E 030°59'0 0.0
2016-Apr-17 23:32N 46°32' E 030°59'0 0.0
2016-Apr-17 22:31N 46°32' E 030°59'0 0.0
2016-Apr-17 21:29N 46°32' E 030°59'0 0.0
2016-Apr-17 20:26N 46°32' E 030°59'0 0.0
2016-Apr-17 19:32N 46°32' E 030°59'0 0.0
2016-Apr-17 18:31N 46°32' E 030°59'0 0.0
2016-Apr-17 17:32N 46°32' E 030°59'0 0.0
2016-Apr-17 16:32N 46°32' E 030°59'0 0.0
2016-Apr-17 15:32N 46°32' E 030°59'0 0.0
2016-Apr-17 14:32N 46°32' E 030°59'0 0.0
2016-Apr-17 13:32N 46°32' E 030°59'0 0.0
2016-Apr-17 12:28N 46°32' E 030°59'0 0.0
2016-Apr-17 11:29N 46°32' E 030°59'0 0.0
2016-Apr-17 10:32N 46°32' E 030°59'0 0.0
2016-Apr-17 09:32N 46°32' E 030°59'0 0.0
2016-Apr-17 08:31N 46°32' E 030°59'0 0.0
2016-Apr-17 07:31N 46°32' E 030°59'0 0.0
2016-Apr-17 02:19N 46°32' E 030°59'0 0.0
2016-Apr-17 01:31N 46°32' E 030°59'0 0.0
2016-Apr-17 00:31N 46°32' E 030°59'0 0.0
2016-Apr-16 23:32N 46°32' E 030°59'0 0.0
2016-Apr-16 22:31N 46°32' E 030°59'0 0.0
2016-Apr-16 21:32N 46°32' E 030°59'0 0.0
2016-Apr-16 20:31N 46°32' E 030°59'0 0.0
2016-Apr-16 19:32N 46°32' E 030°59'0 0.0
2016-Apr-16 18:32N 46°32' E 030°59'0 0.0
2016-Apr-16 17:23N 46°32' E 030°59'0 0.0
2016-Apr-16 16:31N 46°32' E 030°59'0 0.0
2016-Apr-16 15:31N 46°32' E 030°59'0 0.0
2016-Apr-16 14:29N 46°32' E 030°59'0 0.0
2016-Apr-16 13:22N 46°32' E 030°59'3 3.7
2016-Apr-16 12:33N 46°29' E 030°57'1413.7
2016-Apr-16 11:33N 46°15' E 030°60'  
Track history (hours):
 
Tides and Currents Weather Stations Pressure Air Temp Water Temp Dewpoint Dewpoint Depression Visibility Wind Speed Wind Dir Waves Ship Positions

Gas Grouper

Last reported at 2016-Apr-26 01:33 UTC. Time now 2016-May-01 11:46 UTC.
Position N 30°50' E 032°19'.

Length 174 m; draft 10.4 m.

Type: Tanker. MMSI: 538003910.

Date/timePositionNaut miles runAvg speedWind from/ knotsBaromVisibWave heightAir tempDewpointWater temp
2016-Apr-26 01:33N 30°50' E 032°19'32 7.7
2016-Apr-25 21:22N 31°22' E 032°19'1 1.7
2016-Apr-25 20:32N 31°24' E 032°18'0 0.0
2016-Apr-25 19:32N 31°24' E 032°18'0 0.0
2016-Apr-25 18:32N 31°24' E 032°18'4 3.8
2016-Apr-25 17:33N 31°27' E 032°18'1514.5
2016-Apr-25 16:33N 31°38' E 032°06'1515.3
2016-Apr-25 15:33N 31°49' E 031°53'1515.4
2016-Apr-25 14:33N 32°00' E 031°41'1515.4
2016-Apr-25 13:33N 32°12' E 031°29'1615.4
2016-Apr-25 12:30N 32°23' E 031°15'40315.5
2016-Apr-24 10:34N 37°27' E 025°52'242 8.1
2016-Apr-23 04:31N 40°49' E 028°43'1010.0
2016-Apr-23 03:33N 40°56' E 028°51'0 0.0
2016-Apr-22 23:09N 40°56' E 028°51'2 3.9
2016-Apr-22 22:33N 40°56' E 028°54'33410.1
2016-Apr-21 13:33N 46°18' E 030°55'1313.3
2016-Apr-21 12:34N 46°32' E 030°56'4 0.1
2016-Apr-20 06:33N 46°34' E 031°00'2 1.1
2016-Apr-20 04:31N 46°32' E 030°59'0 0.0
2016-Apr-20 03:31N 46°32' E 030°59'0 0.0
2016-Apr-20 02:31N 46°32' E 030°59'0 0.0
2016-Apr-20 01:25N 46°32' E 030°59'0 0.0
2016-Apr-20 00:11N 46°32' E 030°59'0 0.0
2016-Apr-19 23:26N 46°32' E 030°59'0 0.0
2016-Apr-19 22:32N 46°32' E 030°59'0 0.0
2016-Apr-19 21:32N 46°32' E 030°59'0 0.0
2016-Apr-19 20:32N 46°32' E 030°59'0 0.0
2016-Apr-19 19:32N 46°32' E 030°59'0 0.0
2016-Apr-19 18:32N 46°32' E 030°59'0 0.0
2016-Apr-19 17:31N 46°32' E 030°59'0 0.1
2016-Apr-19 16:25N 46°32' E 030°59'0 0.1
2016-Apr-19 15:31N 46°32' E 030°59'0 0.1
2016-Apr-19 14:23N 46°32' E 030°59'0 0.0
2016-Apr-19 13:32N 46°32' E 030°59'0 0.1
2016-Apr-19 12:20N 46°32' E 030°59'0 0.1
2016-Apr-19 11:32N 46°32' E 030°59'0 0.0
2016-Apr-19 10:10N 46°32' E 030°59'0 0.0
2016-Apr-19 09:20N 46°32' E 030°59'0 0.1
2016-Apr-19 08:29N 46°32' E 030°59'0 0.0
2016-Apr-19 07:26N 46°32' E 030°59'0 0.0
2016-Apr-19 06:28N 46°32' E 030°59'0 0.0
2016-Apr-19 05:16N 46°32' E 030°59'0 0.0
2016-Apr-19 04:32N 46°32' E 030°59'0 0.0
2016-Apr-19 03:28N 46°32' E 030°59'0 0.0
2016-Apr-19 02:31N 46°32' E 030°59'0 0.0
2016-Apr-19 01:29N 46°32' E 030°59'0 0.0
2016-Apr-19 00:10N 46°32' E 030°59'0 0.1
2016-Apr-18 23:31N 46°32' E 030°59'0 0.1
2016-Apr-18 22:32N 46°32' E 030°59'0 0.1
2016-Apr-18 21:31N 46°32' E 030°59'0 0.0
2016-Apr-18 20:32N 46°32' E 030°59'0 0.0
2016-Apr-18 19:29N 46°32' E 030°59'0 0.0
2016-Apr-18 18:31N 46°32' E 030°59'0 0.0
2016-Apr-18 17:29N 46°32' E 030°59'0 0.0
2016-Apr-18 16:32N 46°32' E 030°59'0 0.1
2016-Apr-18 15:20N 46°32' E 030°59'0 0.0
2016-Apr-18 14:31N 46°32' E 030°59'0 0.0
2016-Apr-18 13:25N 46°32' E 030°59'0 0.0
2016-Apr-18 12:32N 46°32' E 030°59'0 0.0
2016-Apr-18 11:19N 46°32' E 030°59'0 0.0
2016-Apr-18 10:20N 46°32' E 030°59'0 0.0
2016-Apr-18 09:16N 46°32' E 030°59'0 0.0
2016-Apr-18 08:29N 46°32' E 030°59'0 0.0
2016-Apr-18 07:25N 46°32' E 030°59'0 0.0
2016-Apr-18 06:28N 46°32' E 030°59'0 0.0
2016-Apr-18 05:26N 46°32' E 030°59'0 0.0
2016-Apr-18 04:32N 46°32' E 030°59'0 0.0
2016-Apr-18 03:28N 46°32' E 030°59'0 0.0
2016-Apr-18 02:32N 46°32' E 030°59'0 0.0
2016-Apr-18 01:31N 46°32' E 030°59'0 0.0
2016-Apr-18 00:31N 46°32' E 030°59'0 0.0
2016-Apr-17 23:32N 46°32' E 030°59'0 0.0
2016-Apr-17 22:31N 46°32' E 030°59'0 0.0
2016-Apr-17 21:29N 46°32' E 030°59'0 0.0
2016-Apr-17 20:26N 46°32' E 030°59'0 0.0
2016-Apr-17 19:32N 46°32' E 030°59'0 0.0
2016-Apr-17 18:31N 46°32' E 030°59'0 0.0
2016-Apr-17 17:32N 46°32' E 030°59'0 0.0
2016-Apr-17 16:32N 46°32' E 030°59'0 0.0
2016-Apr-17 15:32N 46°32' E 030°59'0 0.0
2016-Apr-17 14:32N 46°32' E 030°59'0 0.0
2016-Apr-17 13:32N 46°32' E 030°59'0 0.0
2016-Apr-17 12:28N 46°32' E 030°59'0 0.0
2016-Apr-17 11:29N 46°32' E 030°59'0 0.0
2016-Apr-17 10:32N 46°32' E 030°59'0 0.0
2016-Apr-17 09:32N 46°32' E 030°59'0 0.0
2016-Apr-17 08:31N 46°32' E 030°59'0 0.0
2016-Apr-17 07:31N 46°32' E 030°59'0 0.0
2016-Apr-17 02:19N 46°32' E 030°59'0 0.0
2016-Apr-17 01:31N 46°32' E 030°59'0 0.0
2016-Apr-17 00:31N 46°32' E 030°59'0 0.0
2016-Apr-16 23:32N 46°32' E 030°59'0 0.0
2016-Apr-16 22:31N 46°32' E 030°59'0 0.0
2016-Apr-16 21:32N 46°32' E 030°59'0 0.0
2016-Apr-16 20:31N 46°32' E 030°59'0 0.0
2016-Apr-16 19:32N 46°32' E 030°59'0 0.0
2016-Apr-16 18:32N 46°32' E 030°59'0 0.0
2016-Apr-16 17:23N 46°32' E 030°59'0 0.0
2016-Apr-16 16:31N 46°32' E 030°59'0 0.0
2016-Apr-16 15:31N 46°32' E 030°59'0 0.0
2016-Apr-16 14:29N 46°32' E 030°59'0 0.0
2016-Apr-16 13:22N 46°32' E 030°59'3 3.7
2016-Apr-16 12:33N 46°29' E 030°57'1413.7
2016-Apr-16 11:33N 46°15' E 030°60'  

Dump ship's entire track history